Sun City, CA (92585)

7:32 AM PDT on July 30, 2016 (GMT -0700)
APRSWXNET | | Change Station

Elev 1496 ft 33.75 °N, 117.15 °W | Updated 32 minutes ago

Overcast
Overcast
73 °F
Feels Like 76 °F
N
0
Wind Variable Wind from ENE
Gusts 1.0 mph

Today
High -- | Low -- °F
--% Chance of Precip.
Yesterday
High -- | Low -- °F
Precip. -- in
Pressure 29.84 in
Visibility 7.0 miles
Clouds Scattered Clouds 800 ft
Overcast 12000 ft
Heat Index 76 °F
Dew Point 61 °F
Humidity 65%
Rainfall in
Snow Depth Not available.
5:59 AM 7:50 PM
Waning Crescent, 13% visible
METAR KRIV 301358Z 31003KT 7SM SCT008 OVC120 24/17 A2989 RMK AO2A SLP105 T02420166
Pressure 29.84 in
Visibility 7.0 miles
Clouds Scattered Clouds 800 ft
Overcast 12000 ft
Heat Index 76 °F
Dew Point 61 °F
Humidity 65%
Rainfall in
Snow Depth Not available.
5:59 AM 7:50 PM
Waning Crescent, 13% visible
METAR KRIV 301358Z 31003KT 7SM SCT008 OVC120 24/17 A2989 RMK AO2A SLP105 T02420166

10-Day Weather Forecast

Almanac

Astronomy

Jul. 30, 2016 Rise Set
Actual Time
Civil Twilight
Nautical Twilight
Astronomical Twilight
Moon
Length of Visible Light
Length of Day
Tomorrow will be .
, % of the Moon is Illuminated

Today's Extremes

State Highs State Lows

Community

WunderPhotos

Upload Photos

1,928,565 photos uploaded!

WunderBlog® & News

Nearby

Air Quality

  Air Quality AQ Index Pollutant
Not available.

Snow Depth

Station Depth Elevation

Earthquake Activity

City Distance Mag. Time & Date
Minimum magnitude displayed is 2.5.

Coastal Water Temperatures

Place Temperature

Stations

Nearby Weather Stations

Station Location Temp. Windchill Dew Point Humidity Wind Precip. Elev Updated Type
                   

Watches & Warnings

There are currently no watches in effect.